(°C)
(°C)
-1°
-2°
-3°
-3°
-4°
-4°
-4°
WNW
O
WSW
WSW
WSW
WSW
SW
(km/h)
13-22
12-23
11-20
11-19
11-18
10-16
10-15
(mm)
0
0
0
0
0
0
0
(%)
0
0
0
0
0
0
0

Elevazione del sole

/ -18.6°
sun-icon
UV 2
06:24
17:10
Luna piena (177°)
17:18
05:52

METAR per 46.38°N 44.32°E (URWI)

Ora Condizioni Temperatura/
Punto di rugiada
Vento Visibilità Tempo Nuvole Pressione Cambiamento Grezzo
3°C / -2°C 270º 8kt >10km - 1028 - URWI 201530Z AUTO 27004MPS 9999 // ///////// 03/M02 Q1028
4°C / -3°C 290º 6kt >10km - 1027 - URWI 201500Z AUTO 29003MPS 9999 // ///////// 04/M03 Q1027
VFR 5°C / -3°C 310º 8kt >10km - Few Clouds 4200ft 1027 No Significant change URWI 201430Z 31004MPS 9999 FEW042 05/M03 Q1027 NOSIG
6°C / -3°C 310º 8kt >10km - 1026 No Significant change. Runway 27: Clear and dry, 1-10% contamination with <1mm, friction coefficient 0.65. URWI 201400Z 31004MPS 9999 FEW///CB 06/M03 Q1026 R27/010065 NOSIG
7°C / -1°C 330º 12kt >10km - 1026 No Significant change. Runway 27: Clear and dry, 1-10% contamination with <1mm, friction coefficient 0.65. URWI 201330Z 33006MPS 9999 FEW///CB 07/M01 Q1026 R27/010065 NOSIG
VFR 8°C / -2°C 320º variable 290º to 350º 14kt >10km - Few Clouds 3300ft 1026 No Significant change. Runway 27: Clear and dry, 1-10% contamination with <1mm, friction coefficient 0.65. URWI 201300Z 32007MPS 290V350 9999 FEW033CB 08/M02 Q1026 R27/010065 NOSIG
8°C / -2°C 310º 10kt >10km - 1025 No Significant change. Runway 27: Clear and dry, 1-10% contamination with <1mm, friction coefficient 0.65. URWI 201230Z 31005MPS 9999 FEW///CB 08/M02 Q1025 R27/010065 NOSIG
VFR 6°C / 0°C 360º 17kt Gust 27kt >10km Light Showers Rain 3.00mm precipitation Vertical Visibility of 0ft. 1025 Temporary: 32015G20MPS Visibility 3000. Light Showers Rain . Scattered Clouds 2000ft. Cumulonimbus . Runway 27: Clear and dry, 1-10% contamination with <1mm, friction coefficient 0.65. URWI 201200Z 36009G14MPS 9999 -SHRA SCT045CB 06/00 Q1025 R27/010065 TEMPO 32015G20MPS 3000 -SHRA SCT020CB
VFR 8°C / -4°C 330º 17kt >10km - Few Clouds 4200ft 1024 No Significant change. Runway 27: Clear and dry, 1-10% contamination with <1mm, friction coefficient 0.65. URWI 201130Z 33009MPS 9999 FEW042CB 08/M04 Q1024 R27/010065 NOSIG
7°C / -3°C 320º 17kt >10km - 1024 No Significant change. Runway 27: Clear and dry, 1-10% contamination with <1mm, friction coefficient 0.65. URWI 201100Z 32009MPS 9999 FEW///CB 07/M03 Q1024 R27/010065 NOSIG
VFR 7°C / -2°C 320º 19kt >10km - Scattered Clouds 6600ft 1024 Temporary: Light Showers Rain . Scattered Clouds 2000ft. Cumulonimbus . Runway 27: Clear and dry, 1-10% contamination with <1mm, friction coefficient 0.65. URWI 201030Z 32010MPS 9999 SCT066CB 07/M02 Q1024 R27/010065 TEMPO -SHRA SCT020CB
VFR 8°C / -1°C 340º 16kt >10km Light Showers Rain 3.00mm precipitation Vertical Visibility of 0ft. 1023 Temporary: Light Showers Rain . Scattered Clouds 2000ft. Cumulonimbus . Runway 27: Clear and dry, 1-10% contamination with <1mm, friction coefficient 0.65. URWI 201000Z 34008MPS 9999 -SHRA SCT037CB 08/M01 Q1023 R27/010065 TEMPO -SHRA SCT020CB
7°C / -2°C 320º 12kt >10km - 1023 Temporary: Light Showers Rain . Scattered Clouds 2000ft. Cumulonimbus . Runway 27: Clear and dry, 1-10% contamination with <1mm, friction coefficient 0.65. URWI 200930Z 32006MPS 9999 FEW///CB 07/M02 Q1023 R27/010065 TEMPO -SHRA SCT020CB
VFR 8°C / -2°C 330º 12kt >10km - Few Clouds 3700ft 1023 Temporary: Light Showers Rain . Scattered Clouds 2000ft. Cumulonimbus . Runway 27: Clear and dry, 1-10% contamination with <1mm, friction coefficient 0.65. URWI 200900Z 33006MPS 9999 FEW037CB 08/M02 Q1023 R27/010065 TEMPO -SHRA SCT020CB
VFR 9°C / -1°C 300º 14kt >10km - Few Clouds 3200ft 1023 Temporary: Light Showers Rain . Scattered Clouds 2000ft. Cumulonimbus . Runway 27: Clear and dry, 1-10% contamination with <1mm, friction coefficient 0.65. URWI 200830Z 30007MPS 9999 FEW032CB 09/M01 Q1023 R27/010065 TEMPO -SHRA SCT020CB
VFR 8°C / -2°C 300º 16kt >10km - Few Clouds 5000ft 1023 Temporary: Light Showers Rain . Scattered Clouds 2000ft. Cumulonimbus . Runway 27: Clear and dry, 1-10% contamination with <1mm, friction coefficient 0.65. URWI 200800Z 30008MPS 9999 FEW050CB 08/M02 Q1023 R27/010065 TEMPO -SHRA SCT020CB
7°C / -1°C 290º 16kt >10km - 1023 Temporary: Light Showers Rain . Scattered Clouds 2000ft. Cumulonimbus . Runway 27: Clear and dry, 1-10% contamination with <1mm, friction coefficient 0.65. URWI 200730Z 29008MPS 9999 FEW///CB 07/M01 Q1023 R27/010065 TEMPO -SHRA SCT020CB
6°C / -1°C 290º 16kt >10km - 1023 Temporary: Light Showers Rain . Scattered Clouds 2000ft. Cumulonimbus . Runway 27: Clear and dry, 1-10% contamination with <1mm, friction coefficient 0.65. URWI 200700Z 29008MPS 9999 FEW///CB 06/M01 Q1023 R27/010065 TEMPO -SHRA SCT020CB
VFR 7°C / -1°C 280º 14kt >10km - Few Clouds 5500ft 1023 Temporary: Light Showers Rain . Scattered Clouds 2000ft. Cumulonimbus URWI 200630Z 28007MPS 9999 FEW055CB 07/M01 Q1023 TEMPO -SHRA SCT020CB
5°C / -1°C 290º variable 260º to 320º 16kt >10km - 1023 No Significant change URWI 200600Z 29008MPS 260V320 9999 FEW/// 05/M01 Q1023 NOSIG
VFR 5°C / -1°C 250º 14kt >10km - Clouds and Visibility OK 1022 No Significant change URWI 200530Z 25007MPS CAVOK 05/M01 Q1022 NOSIG
3°C / -1°C 260º 14kt >10km - 1022 - URWI 200500Z AUTO 26007MPS 9999 // ///////// 03/M01 Q1022
3°C / -1°C 260º 12kt >10km - 1022 - URWI 200430Z AUTO 26006MPS 9999 // ///073/// 03/M01 Q1022
2°C / -1°C 270º 10kt >10km - 1022 - URWI 200400Z AUTO 27005MPS 9999 // ///073/// 02/M01 Q1022

3°C / -2°C

[Più]
Vento 270º 8kt
Visibilità >10km
Tempo -
Nuvole
Pressione 1028
Cambiamento -
Grezzo URWI 201530Z AUTO 27004MPS 9999 // ///////// 03/M02 Q1028

4°C / -3°C

[Più]
Vento 290º 6kt
Visibilità >10km
Tempo -
Nuvole
Pressione 1027
Cambiamento -
Grezzo URWI 201500Z AUTO 29003MPS 9999 // ///////// 04/M03 Q1027

VFR

5°C / -3°C

[Più]
Vento 310º 8kt
Visibilità >10km
Tempo -
Nuvole Few Clouds 4200ft
Pressione 1027
Cambiamento No Significant change
Grezzo URWI 201430Z 31004MPS 9999 FEW042 05/M03 Q1027 NOSIG

6°C / -3°C

[Più]
Vento 310º 8kt
Visibilità >10km
Tempo -
Nuvole
Pressione 1026
Cambiamento No Significant change. Runway 27: Clear and dry, 1-10% contamination with <1mm, friction coefficient 0.65.
Grezzo URWI 201400Z 31004MPS 9999 FEW///CB 06/M03 Q1026 R27/010065 NOSIG

7°C / -1°C

[Più]
Vento 330º 12kt
Visibilità >10km
Tempo -
Nuvole
Pressione 1026
Cambiamento No Significant change. Runway 27: Clear and dry, 1-10% contamination with <1mm, friction coefficient 0.65.
Grezzo URWI 201330Z 33006MPS 9999 FEW///CB 07/M01 Q1026 R27/010065 NOSIG

VFR

8°C / -2°C

[Più]
Vento 320º variable 290º to 350º 14kt
Visibilità >10km
Tempo -
Nuvole Few Clouds 3300ft
Pressione 1026
Cambiamento No Significant change. Runway 27: Clear and dry, 1-10% contamination with <1mm, friction coefficient 0.65.
Grezzo URWI 201300Z 32007MPS 290V350 9999 FEW033CB 08/M02 Q1026 R27/010065 NOSIG

8°C / -2°C

[Più]
Vento 310º 10kt
Visibilità >10km
Tempo -
Nuvole
Pressione 1025
Cambiamento No Significant change. Runway 27: Clear and dry, 1-10% contamination with <1mm, friction coefficient 0.65.
Grezzo URWI 201230Z 31005MPS 9999 FEW///CB 08/M02 Q1025 R27/010065 NOSIG

VFR

6°C / 0°C

[Più]
Vento 360º 17kt Gust 27kt
Visibilità >10km
Tempo Light Showers Rain 3.00mm precipitation
Nuvole Vertical Visibility of 0ft.
Pressione 1025
Cambiamento Temporary: 32015G20MPS Visibility 3000. Light Showers Rain . Scattered Clouds 2000ft. Cumulonimbus . Runway 27: Clear and dry, 1-10% contamination with <1mm, friction coefficient 0.65.
Grezzo URWI 201200Z 36009G14MPS 9999 -SHRA SCT045CB 06/00 Q1025 R27/010065 TEMPO 32015G20MPS 3000 -SHRA SCT020CB

VFR

8°C / -4°C

[Più]
Vento 330º 17kt
Visibilità >10km
Tempo -
Nuvole Few Clouds 4200ft
Pressione 1024
Cambiamento No Significant change. Runway 27: Clear and dry, 1-10% contamination with <1mm, friction coefficient 0.65.
Grezzo URWI 201130Z 33009MPS 9999 FEW042CB 08/M04 Q1024 R27/010065 NOSIG

7°C / -3°C

[Più]
Vento 320º 17kt
Visibilità >10km
Tempo -
Nuvole
Pressione 1024
Cambiamento No Significant change. Runway 27: Clear and dry, 1-10% contamination with <1mm, friction coefficient 0.65.
Grezzo URWI 201100Z 32009MPS 9999 FEW///CB 07/M03 Q1024 R27/010065 NOSIG

VFR

7°C / -2°C

[Più]
Vento 320º 19kt
Visibilità >10km
Tempo -
Nuvole Scattered Clouds 6600ft
Pressione 1024
Cambiamento Temporary: Light Showers Rain . Scattered Clouds 2000ft. Cumulonimbus . Runway 27: Clear and dry, 1-10% contamination with <1mm, friction coefficient 0.65.
Grezzo URWI 201030Z 32010MPS 9999 SCT066CB 07/M02 Q1024 R27/010065 TEMPO -SHRA SCT020CB

VFR

8°C / -1°C

[Più]
Vento 340º 16kt
Visibilità >10km
Tempo Light Showers Rain 3.00mm precipitation
Nuvole Vertical Visibility of 0ft.
Pressione 1023
Cambiamento Temporary: Light Showers Rain . Scattered Clouds 2000ft. Cumulonimbus . Runway 27: Clear and dry, 1-10% contamination with <1mm, friction coefficient 0.65.
Grezzo URWI 201000Z 34008MPS 9999 -SHRA SCT037CB 08/M01 Q1023 R27/010065 TEMPO -SHRA SCT020CB

7°C / -2°C

[Più]
Vento 320º 12kt
Visibilità >10km
Tempo -
Nuvole
Pressione 1023
Cambiamento Temporary: Light Showers Rain . Scattered Clouds 2000ft. Cumulonimbus . Runway 27: Clear and dry, 1-10% contamination with <1mm, friction coefficient 0.65.
Grezzo URWI 200930Z 32006MPS 9999 FEW///CB 07/M02 Q1023 R27/010065 TEMPO -SHRA SCT020CB

VFR

8°C / -2°C

[Più]
Vento 330º 12kt
Visibilità >10km
Tempo -
Nuvole Few Clouds 3700ft
Pressione 1023
Cambiamento Temporary: Light Showers Rain . Scattered Clouds 2000ft. Cumulonimbus . Runway 27: Clear and dry, 1-10% contamination with <1mm, friction coefficient 0.65.
Grezzo URWI 200900Z 33006MPS 9999 FEW037CB 08/M02 Q1023 R27/010065 TEMPO -SHRA SCT020CB

VFR

9°C / -1°C

[Più]
Vento 300º 14kt
Visibilità >10km
Tempo -
Nuvole Few Clouds 3200ft
Pressione 1023
Cambiamento Temporary: Light Showers Rain . Scattered Clouds 2000ft. Cumulonimbus . Runway 27: Clear and dry, 1-10% contamination with <1mm, friction coefficient 0.65.
Grezzo URWI 200830Z 30007MPS 9999 FEW032CB 09/M01 Q1023 R27/010065 TEMPO -SHRA SCT020CB

VFR

8°C / -2°C

[Più]
Vento 300º 16kt
Visibilità >10km
Tempo -
Nuvole Few Clouds 5000ft
Pressione 1023
Cambiamento Temporary: Light Showers Rain . Scattered Clouds 2000ft. Cumulonimbus . Runway 27: Clear and dry, 1-10% contamination with <1mm, friction coefficient 0.65.
Grezzo URWI 200800Z 30008MPS 9999 FEW050CB 08/M02 Q1023 R27/010065 TEMPO -SHRA SCT020CB

7°C / -1°C

[Più]
Vento 290º 16kt
Visibilità >10km
Tempo -
Nuvole
Pressione 1023
Cambiamento Temporary: Light Showers Rain . Scattered Clouds 2000ft. Cumulonimbus . Runway 27: Clear and dry, 1-10% contamination with <1mm, friction coefficient 0.65.
Grezzo URWI 200730Z 29008MPS 9999 FEW///CB 07/M01 Q1023 R27/010065 TEMPO -SHRA SCT020CB

6°C / -1°C

[Più]
Vento 290º 16kt
Visibilità >10km
Tempo -
Nuvole
Pressione 1023
Cambiamento Temporary: Light Showers Rain . Scattered Clouds 2000ft. Cumulonimbus . Runway 27: Clear and dry, 1-10% contamination with <1mm, friction coefficient 0.65.
Grezzo URWI 200700Z 29008MPS 9999 FEW///CB 06/M01 Q1023 R27/010065 TEMPO -SHRA SCT020CB

VFR

7°C / -1°C

[Più]
Vento 280º 14kt
Visibilità >10km
Tempo -
Nuvole Few Clouds 5500ft
Pressione 1023
Cambiamento Temporary: Light Showers Rain . Scattered Clouds 2000ft. Cumulonimbus
Grezzo URWI 200630Z 28007MPS 9999 FEW055CB 07/M01 Q1023 TEMPO -SHRA SCT020CB

5°C / -1°C

[Più]
Vento 290º variable 260º to 320º 16kt
Visibilità >10km
Tempo -
Nuvole
Pressione 1023
Cambiamento No Significant change
Grezzo URWI 200600Z 29008MPS 260V320 9999 FEW/// 05/M01 Q1023 NOSIG

VFR

5°C / -1°C

[Più]
Vento 250º 14kt
Visibilità >10km
Tempo -
Nuvole Clouds and Visibility OK
Pressione 1022
Cambiamento No Significant change
Grezzo URWI 200530Z 25007MPS CAVOK 05/M01 Q1022 NOSIG

3°C / -1°C

[Più]
Vento 260º 14kt
Visibilità >10km
Tempo -
Nuvole
Pressione 1022
Cambiamento -
Grezzo URWI 200500Z AUTO 26007MPS 9999 // ///////// 03/M01 Q1022

3°C / -1°C

[Più]
Vento 260º 12kt
Visibilità >10km
Tempo -
Nuvole
Pressione 1022
Cambiamento -
Grezzo URWI 200430Z AUTO 26006MPS 9999 // ///073/// 03/M01 Q1022

2°C / -1°C

[Più]
Vento 270º 10kt
Visibilità >10km
Tempo -
Nuvole
Pressione 1022
Cambiamento -
Grezzo URWI 200400Z AUTO 27005MPS 9999 // ///073/// 02/M01 Q1022

TAF per 46.38°N 44.32°E (URWI)

From till


From till Wind 300º 16kt. Gust 27kt. Visibility 10km or more. Scattered Clouds 3000ft.
Temporarly from till Wind 330º 21kt. Gust 35kt. Visibility 5000m. Light Showers Rain . Scattered Clouds 2000ft.
Becoming from till Wind 280º 6kt. Gust 19kt. Visibility 10km or more. Scattered Clouds 3000ft.

Grezzo: TAF AMD URWI 201148Z 2012/2021 30008G14MPS 9999 SCT030 TEMPO 2012/2015 33011G18MPS 5000 -SHRA SCT020CB BECMG 2015/2017 28003G10MPS

Tempo in atto per 46.38°N 44.32°E: immagine satellitare e pioggia

Il segnaposto è situato a 46.38°N 44.32°E. [Più]

L'immagine satellitare in tempo reale combina la luce visibile durante il giorno con la radiazione infrarossa durante la notte. Di notte l'immagine non è scura poiché i raggi infrarossi possono rilevare differenze di temperatura. Purtroppo, le nuvole basse e la nebbia sono difficili da distinguere dalla temperatura del suolo e possono pertanto essere quasi invisibili durante la notte. Le immagini satellitari Meteosat per l'Europa vengono aggiornate in tempo reale ogni 5 minuti. Le immagini GOES-16 / GOES-17 (Nord e Sud America) e Himawari (Asia) vengono aggiornate ogni 10 minuti.

Copyright 2021 EUMETSAT / meteoblue. / Copyright 2021 meteoblue

Radar e nowcasting per 46.38°N 44.32°E

Pioggerella
Lieve
Moderato
Forte
Molto forte
Grandine

Il segnaposto è situato a 46.38°N 44.32°E. Questa animazione mostra il radar delle precipitazioni per l'ultima ora, nonché una previsione 1h. Drizzle or light snow fall might be invisible for the radar. Precipitation intensity is colour coded, ranging from light blue to orange.